Time;durP1;ratioP1;P1;durP2;ratioP2;P2;SDS_P1;SDS_P2;PMS_P1;PMS_P2;Temp;Humidity;BMP_temperature;BMP_pressure;BME280_temperature;BME280_humidity;BME280_pressure;Samples;Min_cycle;Max_cycle;Signal;HPM_P1;HPM_P2
2021/06/29 00:00:42;;;;;;;6.15;5.30;;;;;;;13.18;100.00;93349.48;1842372;77;21394;-82
2021/06/29 00:03:09;;;;;;;5.45;4.95;;;;;;;13.13;100.00;93349.96;1855210;76;21570;-80
2021/06/29 00:05:37;;;;;;;6.35;4.80;;;;;;;13.12;100.00;93340.97;1845820;77;21022;-80
2021/06/29 00:08:05;;;;;;;6.45;5.15;;;;;;;13.12;100.00;93340.97;1845494;77;21595;-81
2021/06/29 00:10:32;;;;;;;7.15;4.47;;;;;;;13.06;100.00;93341.88;1848869;77;21065;-78
2021/06/29 00:12:59;;;;;;;4.97;4.58;;;;;;;12.98;100.00;93343.16;1840184;77;21069;-81
2021/06/29 00:15:28;;;;;;;8.85;4.72;;;;;;;12.94;100.00;93345.94;1851981;77;21037;-81
2021/06/29 00:17:55;;;;;;;5.12;4.62;;;;;;;12.96;100.00;93344.92;1769864;78;21116;-80
2021/06/29 00:20:21;;;;;;;10.60;5.62;;;;;;;13.02;100.00;93340.55;1791564;77;20998;-81
2021/06/29 00:22:48;;;;;;;8.98;5.10;;;;;;;13.08;100.00;93330.70;1822615;77;21155;-79
2021/06/29 00:25:18;;;;;;;5.25;4.70;;;;;;;13.16;100.00;93328.63;1787148;77;21042;-79
2021/06/29 00:27:44;;;;;;;4.85;4.35;;;;;;;13.21;100.00;93328.78;1843705;77;20967;-78
2021/06/29 00:30:12;;;;;;;5.35;4.15;;;;;;;13.21;100.00;93333.64;1790697;77;21039;-78
2021/06/29 00:32:39;;;;;;;6.22;4.87;;;;;;;13.13;100.00;93335.72;1820929;77;21579;-79
2021/06/29 00:35:07;;;;;;;8.03;4.75;;;;;;;13.04;100.00;93339.53;1845362;77;21275;-79
2021/06/29 00:37:34;;;;;;;5.75;5.00;;;;;;;12.98;100.00;93340.44;1850143;77;21049;-78
2021/06/29 00:40:01;;;;;;;6.35;5.08;;;;;;;13.00;100.00;93345.64;1840190;77;21048;-78
2021/06/29 00:42:27;;;;;;;5.40;4.92;;;;;;;13.03;100.00;93350.88;1852154;77;21143;-77
2021/06/29 00:44:54;;;;;;;8.03;5.10;;;;;;;13.08;100.00;93349.81;1846502;77;21571;-77
2021/06/29 00:47:21;;;;;;;6.67;5.72;;;;;;;13.13;100.00;93348.59;1850126;77;21073;-76
2021/06/29 00:49:47;;;;;;;6.30;5.70;;;;;;;13.16;100.00;93352.44;1851741;77;21488;-76
2021/06/29 00:52:14;;;;;;;6.53;5.30;;;;;;;13.21;100.00;93351.99;1844199;77;20990;-83
2021/06/29 00:54:40;;;;;;;8.63;5.40;;;;;;;13.23;100.00;93344.14;1857174;77;20986;-78
2021/06/29 00:57:08;;;;;;;5.95;5.30;;;;;;;13.25;100.00;93341.81;1844701;77;21027;-79
2021/06/29 00:59:36;;;;;;;9.40;4.85;;;;;;;13.28;100.00;93347.22;1807372;77;21121;-81
2021/06/29 01:02:03;;;;;;;4.65;4.00;;;;;;;13.33;100.00;93341.88;1801974;77;21009;-80
2021/06/29 01:04:31;;;;;;;5.53;5.05;;;;;;;13.26;100.00;93341.98;1841741;77;21042;-80
2021/06/29 01:06:58;;;;;;;7.15;4.92;;;;;;;13.11;100.00;93349.59;1852160;77;21084;-77
2021/06/29 01:09:24;;;;;;;7.62;5.20;;;;;;;13.04;100.00;93345.59;1840919;77;21056;-78
2021/06/29 01:11:51;;;;;;;6.70;5.03;;;;;;;13.06;100.00;93347.33;1847486;77;21031;-79
2021/06/29 01:14:18;;;;;;;7.37;4.55;;;;;;;13.10;100.00;93350.19;1846617;77;21018;-81
2021/06/29 01:16:45;;;;;;;5.67;5.00;;;;;;;13.06;100.00;93341.88;1831651;77;21489;-78
2021/06/29 01:19:13;;;;;;;11.05;5.17;;;;;;;12.92;100.00;93344.20;1785717;78;21021;-79
2021/06/29 01:21:46;;;;;;;5.58;4.92;;;;;;;12.80;100.00;93345.53;1836985;77;21140;-80
2021/06/29 01:24:15;;;;;;;5.12;4.70;;;;;;;12.78;100.00;93337.58;1817083;77;22182;-77
2021/06/29 01:27:52;;;;;;;7.60;5.40;;;;;;;12.74;100.00;93330.80;1844842;77;21018;-82
2021/06/29 01:29:21;;;;;;;6.37;5.20;;;;;;;12.64;100.00;93334.46;1781683;77;21393;-81
2021/06/29 01:31:47;;;;;;;6.28;4.55;;;;;;;12.59;100.00;93338.39;1790605;77;21140;-80
2021/06/29 01:34:14;;;;;;;5.10;4.70;;;;;;;12.57;100.00;93338.64;1840519;77;21010;-80
2021/06/29 01:36:40;;;;;;;5.83;4.85;;;;;;;12.53;100.00;93338.69;1784563;77;21595;-82
2021/06/29 01:39:09;;;;;;;5.25;4.75;;;;;;;12.51;100.00;93330.13;1823380;77;21643;-80
2021/06/29 01:41:36;;;;;;;8.83;5.62;;;;;;;12.58;100.00;93340.95;1812843;77;21018;-81
2021/06/29 01:44:09;;;;;;;9.95;5.05;;;;;;;12.64;100.00;93332.50;1799776;77;20979;-79
2021/06/29 01:46:37;;;;;;;5.17;4.67;;;;;;;12.71;100.00;93340.39;1841499;77;21034;-81
2021/06/29 01:49:02;;;;;;;4.85;4.05;;;;;;;12.73;100.00;93333.95;1852510;77;21103;-80
2021/06/29 01:51:28;;;;;;;4.70;4.00;;;;;;;12.69;100.00;93324.45;1842772;77;21038;-79
2021/06/29 01:53:55;;;;;;;5.87;4.53;;;;;;;12.69;100.00;93323.68;1848539;77;21678;-81
2021/06/29 01:56:28;;;;;;;5.95;5.35;;;;;;;12.61;100.00;93323.77;1848890;77;21022;-75
2021/06/29 01:58:52;;;;;;;6.35;5.15;;;;;;;12.56;100.00;93326.17;1841018;77;21512;-80
2021/06/29 02:01:19;;;;;;;6.87;5.12;;;;;;;12.52;100.00;93329.53;1852523;77;21487;-77
2021/06/29 02:03:45;;;;;;;6.67;5.08;;;;;;;12.51;100.00;93329.36;1762147;78;21073;-78
2021/06/29 02:06:11;;;;;;;5.60;5.00;;;;;;;12.53;100.00;93331.09;1822034;77;21563;-77
2021/06/29 02:08:38;;;;;;;5.65;5.15;;;;;;;12.54;100.00;93331.27;1849256;77;20998;-77
2021/06/29 02:11:05;;;;;;;6.85;5.70;;;;;;;12.56;100.00;93331.05;1852225;75;21040;-78
2021/06/29 02:13:31;;;;;;;5.83;5.25;;;;;;;12.58;100.00;93328.67;1840059;77;22171;-77
2021/06/29 02:15:59;;;;;;;5.92;4.70;;;;;;;12.63;100.00;93322.75;1851443;77;21121;-78
2021/06/29 02:18:25;;;;;;;5.15;4.62;;;;;;;12.65;100.00;93322.36;1844089;77;21531;-79
2021/06/29 02:20:51;;;;;;;8.30;5.95;;;;;;;12.64;100.00;93319.45;1811084;77;21010;-78
2021/06/29 02:23:18;;;;;;;6.45;3.92;;;;;;;12.64;100.00;93320.23;1797364;77;21049;-80
2021/06/29 02:25:44;;;;;;;6.28;4.00;;;;;;;12.61;100.00;93315.59;1841329;77;21713;-80
2021/06/29 02:28:11;;;;;;;5.58;4.35;;;;;;;12.55;100.00;93313.72;1852110;77;21029;-79
2021/06/29 02:30:37;;;;;;;4.72;4.33;;;;;;;12.49;100.00;93313.41;1843566;77;21058;-77
2021/06/29 02:33:04;;;;;;;5.05;4.20;;;;;;;12.53;100.00;93305.19;1849589;77;21587;-78
2021/06/29 02:35:30;;;;;;;4.62;3.40;;;;;;;12.60;100.00;93310.55;1852890;77;21453;-79
2021/06/29 02:37:57;;;;;;;5.15;3.67;;;;;;;12.54;100.00;93312.95;1836074;77;21087;-83
2021/06/29 02:40:23;;;;;;;7.67;4.15;;;;;;;12.40;100.00;93302.98;1782043;80;21023;-81
2021/06/29 02:42:50;;;;;;;4.78;3.87;;;;;;;12.28;100.00;93302.17;1833094;77;21026;-79
2021/06/29 02:45:20;;;;;;;3.92;3.62;;;;;;;12.22;100.00;93305.16;1803117;77;21089;-78
2021/06/29 02:47:47;;;;;;;4.15;3.85;;;;;;;12.22;100.00;93307.12;1805404;77;21073;-80
2021/06/29 02:50:14;;;;;;;3.90;3.60;;;;;;;12.24;100.00;93301.45;1843193;77;21770;-80
2021/06/29 02:52:40;;;;;;;4.55;4.22;;;;;;;12.23;100.00;93302.64;1852255;77;21018;-77
2021/06/29 02:55:09;;;;;;;4.15;3.75;;;;;;;12.22;100.00;93302.44;1840952;77;21019;-79
2021/06/29 02:57:35;;;;;;;5.28;3.98;;;;;;;12.24;100.00;93297.36;1850782;77;21539;-77
2021/06/29 03:00:07;;;;;;;3.95;3.60;;;;;;;12.28;100.00;93295.95;1850009;77;21041;-75
2021/06/29 03:02:34;;;;;;;5.78;3.90;;;;;;;12.28;100.00;93296.72;1826534;77;21469;-76
2021/06/29 03:05:02;;;;;;;4.35;3.98;;;;;;;12.31;100.00;93300.59;1761241;77;21026;-79
2021/06/29 03:07:28;;;;;;;4.08;3.77;;;;;;;12.38;100.00;93295.05;1840624;77;21073;-79
2021/06/29 03:09:54;;;;;;;4.37;3.50;;;;;;;12.44;100.00;93292.63;1849497;77;21041;-77
2021/06/29 03:12:21;;;;;;;4.90;3.40;;;;;;;12.46;100.00;93295.73;1844809;77;21072;-80
2021/06/29 03:14:53;;;;;;;3.65;3.33;;;;;;;12.40;100.00;93292.67;1844448;77;21108;-79
2021/06/29 03:17:17;;;;;;;5.20;3.87;;;;;;;12.33;100.00;93289.44;1850741;77;21197;-80
2021/06/29 03:19:44;;;;;;;4.33;3.92;;;;;;;12.29;100.00;93287.95;1841357;77;21069;-78
2021/06/29 03:22:10;;;;;;;6.00;3.72;;;;;;;12.26;100.00;93286.03;1852053;77;21021;-82
2021/06/29 03:24:37;;;;;;;3.90;3.50;;;;;;;12.31;100.00;93285.01;1848065;77;20900;-79
2021/06/29 03:27:04;;;;;;;7.30;4.42;;;;;;;12.36;100.00;93279.68;1848845;77;21662;-80
2021/06/29 03:29:30;;;;;;;3.98;3.58;;;;;;;12.44;100.00;93284.45;1805762;78;21583;-78
2021/06/29 03:31:57;;;;;;;5.97;4.12;;;;;;;12.49;100.00;93284.78;1774450;80;21096;-81
2021/06/29 03:34:23;;;;;;;4.05;3.65;;;;;;;12.53;100.00;93286.09;1839051;77;21850;-79
2021/06/29 03:36:50;;;;;;;7.03;3.30;;;;;;;12.56;100.00;93289.34;1849189;77;21002;-80
2021/06/29 03:39:16;;;;;;;4.33;3.92;;;;;;;12.59;100.00;93292.03;1846268;77;21405;-81
2021/06/29 03:41:42;;;;;;;4.28;3.98;;;;;;;12.57;100.00;93293.64;1843794;77;21097;-79
2021/06/29 03:44:09;;;;;;;4.30;4.00;;;;;;;12.51;100.00;93291.95;1851847;77;21034;-79
2021/06/29 03:46:35;;;;;;;5.22;4.08;;;;;;;12.50;100.00;93284.95;1841192;77;20998;-77
2021/06/29 03:49:02;;;;;;;4.80;4.10;;;;;;;12.53;100.00;93292.32;1851211;77;21052;-79
2021/06/29 03:51:28;;;;;;;4.05;3.75;;;;;;;12.57;100.00;93290.31;1850687;77;21065;-79
2021/06/29 03:53:54;;;;;;;3.85;3.55;;;;;;;12.67;100.00;93296.80;1843801;77;21108;-80
2021/06/29 03:56:24;;;;;;;5.30;4.05;;;;;;;12.68;100.00;93292.91;1850435;77;21559;-78
2021/06/29 03:58:52;;;;;;;4.53;4.12;;;;;;;12.60;100.00;93290.86;1839776;77;21551;-79
2021/06/29 04:01:21;;;;;;;4.22;3.92;;;;;;;12.59;100.00;93293.98;1848952;77;21737;-79
2021/06/29 04:03:51;;;;;;;4.85;4.45;;;;;;;12.63;100.00;93289.25;1843861;77;21449;-80
2021/06/29 04:06:16;;;;;;;4.55;4.00;;;;;;;12.73;100.00;93299.84;1842972;77;21052;-79
2021/06/29 04:08:43;;;;;;;5.50;4.33;;;;;;;12.81;100.00;93299.33;1849490;77;21616;-80
2021/06/29 04:11:10;;;;;;;4.25;3.92;;;;;;;12.87;100.00;93303.74;1839669;77;21029;-78
2021/06/29 04:13:36;;;;;;;5.03;4.30;;;;;;;12.88;100.00;93301.95;1851712;77;21272;-83
2021/06/29 04:16:04;;;;;;;4.58;4.28;;;;;;;12.91;100.00;93304.46;1848474;76;21160;-79
2021/06/29 04:18:30;;;;;;;4.65;4.25;;;;;;;12.95;100.00;93303.05;1846749;77;21115;-81
2021/06/29 04:20:57;;;;;;;7.35;4.28;;;;;;;12.95;100.00;93309.27;1848904;77;22193;-79
2021/06/29 04:23:23;;;;;;;6.33;4.35;;;;;;;12.97;100.00;93308.84;1816476;77;21291;-81
2021/06/29 04:25:49;;;;;;;5.15;4.65;;;;;;;13.04;100.00;93309.52;1850975;77;21111;-80
2021/06/29 04:28:16;;;;;;;4.87;4.47;;;;;;;13.10;100.00;93312.56;1841509;77;22094;-79
2021/06/29 04:30:43;;;;;;;4.45;4.15;;;;;;;13.14;100.00;93314.64;1844936;77;21092;-81
2021/06/29 04:33:09;;;;;;;4.22;3.83;;;;;;;13.20;100.00;93310.84;1798261;78;21065;-79
2021/06/29 04:35:36;;;;;;;6.40;4.28;;;;;;;13.20;100.00;93310.84;1783991;77;21057;-79
2021/06/29 04:38:03;;;;;;;5.15;4.65;;;;;;;13.23;100.00;93310.81;1841153;77;21724;-78
2021/06/29 04:40:29;;;;;;;4.75;4.25;;;;;;;13.26;100.00;93309.98;1853932;77;21050;-80
2021/06/29 04:42:56;;;;;;;4.80;4.37;;;;;;;13.28;100.00;93310.95;1845011;77;21081;-83
2021/06/29 04:45:26;;;;;;;4.70;4.05;;;;;;;13.33;100.00;93311.24;1843841;77;21057;-80
2021/06/29 04:47:51;;;;;;;5.50;4.37;;;;;;;13.38;100.00;93308.63;1848613;77;21089;-85
2021/06/29 04:50:18;;;;;;;5.37;4.87;;;;;;;13.43;100.00;93302.71;1839956;77;21331;-81
2021/06/29 04:52:45;;;;;;;4.60;4.10;;;;;;;13.51;100.00;93295.17;1785234;77;22122;-84
2021/06/29 04:55:14;;;;;;;4.33;4.03;;;;;;;13.57;100.00;93296.22;1798350;77;21034;-80
2021/06/29 04:57:42;;;;;;;4.25;3.83;;;;;;;13.64;100.00;93296.69;1813062;77;21061;-79
2021/06/29 05:00:26;;;;;;;4.17;3.77;;;;;;;13.71;100.00;93295.20;1773386;77;21025;-79
2021/06/29 05:02:59;;;;;;;5.25;4.85;;;;;;;13.82;100.00;93284.84;1850754;77;21134;-82
2021/06/29 05:05:39;;;;;;;4.87;4.37;;;;;;;13.96;100.00;93289.29;1845149;77;21081;-83
2021/06/29 05:08:14;;;;;;;4.58;4.17;;;;;;;14.12;100.00;93284.49;1825162;77;21049;-78
2021/06/29 05:11:07;;;;;;;4.03;3.72;;;;;;;14.20;100.00;93280.42;1792924;77;21178;-78
2021/06/29 05:13:55;;;;;;;4.58;4.17;;;;;;;14.20;100.00;93285.89;1779051;77;21563;-80
2021/06/29 05:16:24;;;;;;;5.72;4.80;;;;;;;14.31;100.00;93291.92;1813182;77;20975;-79
2021/06/29 05:18:51;;;;;;;6.65;4.45;;;;;;;14.44;100.00;93286.56;1835537;77;21725;-76
2021/06/29 05:21:18;;;;;;;7.35;5.33;;;;;;;14.51;100.00;93292.69;1792466;77;21658;-81
2021/06/29 05:23:51;;;;;;;4.87;4.35;;;;;;;14.59;100.00;93286.47;1832841;77;21053;-81
2021/06/29 05:26:16;;;;;;;4.90;4.47;;;;;;;14.67;100.00;93281.61;1759364;80;21069;-81
2021/06/29 05:28:43;;;;;;;5.60;4.30;;;;;;;14.75;100.00;93276.18;1783486;75;20925;-80
2021/06/29 05:31:10;;;;;;;8.75;4.25;;;;;;;14.84;100.00;93285.94;1838074;76;21041;-81
2021/06/29 05:33:36;;;;;;;4.10;3.80;;;;;;;14.90;100.00;93282.88;1820564;77;21607;-80
2021/06/29 05:36:04;;;;;;;7.70;4.05;;;;;;;14.91;100.00;93280.30;1773026;77;21084;-79
2021/06/29 05:38:31;;;;;;;5.10;4.60;;;;;;;14.97;100.00;93286.03;1808906;77;21295;-81
2021/06/29 05:40:57;;;;;;;5.50;4.53;;;;;;;15.15;100.00;93272.70;1828877;76;21045;-81
2021/06/29 05:43:24;;;;;;;5.55;4.65;;;;;;;15.36;100.00;93270.06;1834097;76;21342;-79
2021/06/29 05:45:51;;;;;;;4.50;4.10;;;;;;;15.58;100.00;93266.80;1800034;77;22243;-81
2021/06/29 05:48:20;;;;;;;4.83;4.42;;;;;;;15.76;100.00;93273.39;1833262;76;21685;-82
2021/06/29 05:50:47;;;;;;;4.95;4.45;;;;;;;15.93;100.00;93265.11;1831336;77;21057;-83
2021/06/29 05:53:14;;;;;;;7.60;4.67;;;;;;;16.03;100.00;93266.20;1845190;76;21003;-79
2021/06/29 05:55:42;;;;;;;5.10;4.20;;;;;;;16.17;99.73;93267.00;1805813;77;21081;-78
2021/06/29 05:58:21;;;;;;;5.25;4.75;;;;;;;16.33;100.00;93262.84;1716115;81;21069;-78
2021/06/29 06:00:50;;;;;;;4.85;4.45;;;;;;;16.50;99.50;93260.78;1694112;82;21410;-83
2021/06/29 06:03:20;;;;;;;4.92;4.25;;;;;;;16.63;97.88;93264.94;1791440;79;21093;-80
2021/06/29 06:05:51;;;;;;;5.90;5.05;;;;;;;16.64;96.37;93258.99;1743263;79;21062;-81
2021/06/29 06:08:18;;;;;;;4.97;4.58;;;;;;;16.66;96.22;93263.45;1765109;79;21115;-83
2021/06/29 06:10:47;;;;;;;5.55;5.10;;;;;;;16.72;95.01;93262.30;1802794;79;21045;-80
2021/06/29 06:13:14;;;;;;;100.67;11.85;;;;;;;16.90;94.90;93252.95;1795131;78;21034;-80
2021/06/29 06:17:22;;;;;;;30.97;6.42;;;;;;;17.43;93.44;93254.61;1877051;76;22517;-85
2021/06/29 06:19:53;;;;;;;5.62;5.12;;;;;;;17.56;91.34;93247.70;1728509;81;21108;-82
2021/06/29 06:22:21;;;;;;;5.65;5.12;;;;;;;17.75;91.52;93249.25;1774288;78;21182;-83
2021/06/29 06:24:50;;;;;;;5.60;4.97;;;;;;;17.98;89.87;93254.39;1793807;78;21084;-85
2021/06/29 06:27:17;;;;;;;5.87;5.33;;;;;;;18.07;88.42;93249.55;1804924;78;21081;-83
2021/06/29 06:33:48;;;;;;;5.08;4.50;;;;;;;18.08;88.40;93240.08;1881558;76;21921;-83
2021/06/29 06:36:16;;;;;;;5.70;5.20;;;;;;;18.02;87.98;93244.02;1849783;77;21431;-81
2021/06/29 06:38:56;;;;;;;5.50;5.00;;;;;;;17.98;88.12;93237.88;1815607;77;21228;-82
2021/06/29 06:41:22;;;;;;;6.05;5.45;;;;;;;17.95;88.46;93240.14;1842569;77;20993;-85
2021/06/29 06:43:49;;;;;;;6.58;5.53;;;;;;;17.95;88.04;93242.89;1807535;78;21081;-85
2021/06/29 06:46:16;;;;;;;7.08;6.08;;;;;;;17.93;88.86;93233.70;1785702;78;21080;-81
2021/06/29 06:48:42;;;;;;;5.90;5.30;;;;;;;17.93;88.33;93246.07;1836645;77;21037;-81
2021/06/29 06:51:09;;;;;;;5.87;5.37;;;;;;;17.93;89.05;93249.44;1815660;77;21072;-83
2021/06/29 06:56:00;;;;;;;5.97;5.47;;;;;;;17.96;88.49;93241.67;1861165;76;22691;-82
2021/06/29 06:58:31;;;;;;;5.72;5.20;;;;;;;17.93;89.49;93242.56;1827239;76;21163;-82
2021/06/29 07:00:58;;;;;;;5.50;5.00;;;;;;;17.96;89.13;93243.81;1760280;77;21069;-84
2021/06/29 07:05:30;;;;;;;5.70;5.10;;;;;;;18.13;90.34;93236.16;1834479;76;22730;-83
2021/06/29 07:10:11;;;;;;;6.08;4.78;;;;;;;18.35;89.97;93228.48;1797985;78;22121;-80
2021/06/29 07:12:37;;;;;;;6.58;5.25;;;;;;;18.37;89.29;93228.20;1790772;79;21101;-81
2021/06/29 07:15:06;;;;;;;5.62;4.87;;;;;;;18.44;89.60;93225.81;1774544;78;21197;-81
2021/06/29 07:17:38;;;;;;;5.35;4.95;;;;;;;18.50;89.18;93229.49;1804883;79;21282;-82
2021/06/29 07:20:06;;;;;;;5.35;4.95;;;;;;;18.59;90.40;93232.93;1807481;78;21053;-82
2021/06/29 07:22:34;;;;;;;7.55;5.42;;;;;;;18.69;89.38;93226.23;1802366;78;22132;-84
2021/06/29 07:25:03;;;;;;;6.60;5.40;;;;;;;18.79;89.02;93227.84;1757460;79;21078;-82
2021/06/29 07:27:30;;;;;;;6.17;4.97;;;;;;;18.84;88.55;93231.41;1818418;76;21770;-83
2021/06/29 07:29:59;;;;;;;9.38;5.83;;;;;;;18.97;88.99;93220.89;1752762;79;21770;-82
2021/06/29 07:32:27;;;;;;;6.08;5.45;;;;;;;19.13;90.13;93215.13;1755621;77;21077;-80
2021/06/29 07:34:54;;;;;;;8.10;5.47;;;;;;;19.34;89.10;93222.54;1777314;79;21350;-81
2021/06/29 07:37:21;;;;;;;6.10;5.45;;;;;;;19.50;86.98;93221.50;1762291;79;21014;-83
2021/06/29 07:39:50;;;;;;;5.95;5.45;;;;;;;19.71;86.59;93210.81;1794920;77;21492;-82
2021/06/29 07:42:22;;;;;;;5.97;5.50;;;;;;;19.95;87.13;93222.80;1782536;78;21077;-79
2021/06/29 07:44:49;;;;;;;6.42;5.83;;;;;;;20.26;86.53;93220.48;1775332;80;21650;-80
2021/06/29 07:47:16;;;;;;;6.15;5.45;;;;;;;20.47;84.44;93219.53;1776456;80;21588;-84
2021/06/29 07:49:44;;;;;;;5.53;5.12;;;;;;;20.61;83.38;93216.16;1742985;80;21456;-84
2021/06/29 07:52:11;;;;;;;5.87;5.37;;;;;;;20.75;82.34;93215.34;1751797;80;21934;-81
2021/06/29 07:54:38;;;;;;;6.05;5.45;;;;;;;20.89;81.15;93210.55;1798664;78;21087;-82
2021/06/29 07:57:08;;;;;;;5.62;5.03;;;;;;;21.04;80.26;93210.02;1787416;78;21069;-82
2021/06/29 07:59:38;;;;;;;5.15;4.75;;;;;;;21.14;79.48;93212.14;1802378;78;21033;-82
2021/06/29 08:02:05;;;;;;;5.28;4.87;;;;;;;21.17;78.74;93214.56;1788009;78;21037;-82
2021/06/29 08:04:32;;;;;;;8.70;5.62;;;;;;;21.15;78.41;93208.14;1762916;80;21094;-80
2021/06/29 08:07:01;;;;;;;5.47;5.05;;;;;;;21.12;78.49;93210.45;1785657;78;21069;-81
2021/06/29 08:09:28;;;;;;;7.28;5.72;;;;;;;21.08;78.43;93211.23;1738352;80;21626;-82
2021/06/29 08:11:54;;;;;;;6.33;5.67;;;;;;;21.09;78.40;93208.61;1797657;78;21112;-82
2021/06/29 08:14:25;;;;;;;6.12;5.05;;;;;;;21.14;78.61;93205.83;1821534;76;21619;-82
2021/06/29 08:17:01;;;;;;;5.40;5.00;;;;;;;21.19;78.08;93205.20;1884777;76;22009;-81
2021/06/29 08:19:30;;;;;;;5.58;5.08;;;;;;;21.26;77.87;93210.39;1769909;78;21033;-82
2021/06/29 08:21:58;;;;;;;6.65;4.72;;;;;;;21.32;76.44;93207.12;1766549;79;21034;-82
2021/06/29 08:24:25;;;;;;;5.45;4.97;;;;;;;21.43;76.38;93201.09;1803003;77;20938;-80
2021/06/29 08:28:41;;;;;;;5.28;4.87;;;;;;;21.62;74.66;93189.30;1877931;76;22033;-81
2021/06/29 08:31:12;;;;;;;6.25;5.65;;;;;;;21.62;71.90;93201.13;1740702;77;21246;-81
2021/06/29 08:33:39;;;;;;;5.42;4.92;;;;;;;21.61;72.22;93188.54;1849275;77;21167;-84
2021/06/29 08:37:54;;;;;;;4.85;4.45;;;;;;;21.71;74.62;93194.17;1879849;75;23949;-86
2021/06/29 08:40:27;;;;;;;4.72;4.33;;;;;;;21.70;71.31;93189.09;1818749;77;20986;-88
2021/06/29 08:42:54;;;;;;;5.20;4.72;;;;;;;21.70;71.20;93198.18;1782989;77;21358;-83
2021/06/29 08:45:21;;;;;;;5.22;4.78;;;;;;;21.68;71.38;93196.48;1838964;77;21041;-83
2021/06/29 08:49:25;;;;;;;6.47;5.50;;;;;;;21.74;71.61;93193.82;1862014;75;22498;-83
2021/06/29 08:51:57;;;;;;;6.03;5.53;;;;;;;21.69;72.69;93195.24;1818459;76;21653;-82
2021/06/29 08:54:23;;;;;;;6.62;5.90;;;;;;;21.71;70.89;93192.02;1819031;77;21123;-80
2021/06/29 08:56:50;;;;;;;6.30;5.72;;;;;;;21.71;70.80;93203.09;1818388;77;21527;-79
2021/06/29 08:59:18;;;;;;;5.58;5.08;;;;;;;21.69;71.02;93206.31;1821790;76;21108;-78
2021/06/29 09:01:45;;;;;;;6.28;5.60;;;;;;;21.58;70.04;93199.92;1830503;77;21010;-81
2021/06/29 09:04:11;;;;;;;7.65;5.53;;;;;;;21.43;70.18;93196.33;1806897;77;21010;-80
2021/06/29 09:06:40;;;;;;;6.65;4.92;;;;;;;21.28;70.41;93193.46;1809879;77;21071;-82
2021/06/29 09:09:31;;;;;;;5.05;4.65;;;;;;;21.17;71.32;93187.69;1770800;79;21025;-81
2021/06/29 09:12:03;;;;;;;4.62;4.30;;;;;;;21.08;71.92;93196.80;1811383;77;21104;-81
2021/06/29 09:15:38;;;;;;;4.45;4.15;;;;;;;20.94;71.35;93197.47;1837022;76;22727;-80
2021/06/29 09:18:12;;;;;;;5.35;4.95;;;;;;;20.77;71.84;93199.84;1770344;77;21082;-82
2021/06/29 09:20:50;;;;;;;5.12;4.60;;;;;;;20.65;72.13;93188.38;1795726;79;21325;-80
2021/06/29 09:23:47;;;;;;;5.43;5.00;;;;;;;20.59;73.13;93195.13;1796828;79;21054;-77
2021/06/29 09:26:18;;;;;;;;;;;;;;;20.60;73.46;93193.13;1781262;78;21075;-81
2021/06/29 09:28:53;;;;;;;4.62;4.28;;;;;;;20.63;74.27;93198.35;1762734;78;20168;-78
2021/06/29 09:31:24;;;;;;;7.00;4.03;;;;;;;20.68;75.10;93189.42;1747680;80;21084;-79
2021/06/29 09:34:02;;;;;;;5.08;4.58;;;;;;;20.75;74.00;93186.34;1743137;79;21005;-82
2021/06/29 09:36:30;;;;;;;5.50;5.03;;;;;;;20.86;74.93;93184.60;1830776;75;21024;-83
2021/06/29 09:39:00;;;;;;;4.95;4.50;;;;;;;21.01;74.43;93170.11;1824111;77;20989;-81
2021/06/29 09:41:31;;;;;;;4.37;4.08;;;;;;;21.13;73.53;93173.27;1740524;80;21084;-79
2021/06/29 09:44:12;;;;;;;4.85;4.40;;;;;;;21.24;73.52;93175.52;1697035;78;21162;-82
2021/06/29 09:46:41;;;;;;;5.75;4.17;;;;;;;21.32;71.54;93173.94;1766232;80;21070;-82
2021/06/29 09:49:14;;;;;;;7.00;4.42;;;;;;;21.34;71.49;93177.80;1756138;80;21074;-81
2021/06/29 09:51:53;;;;;;;4.55;4.12;;;;;;;21.28;70.58;93172.72;1819829;77;21045;-78
2021/06/29 09:54:31;;;;;;;4.53;4.22;;;;;;;21.22;70.92;93166.33;1769000;78;21119;-81
2021/06/29 09:57:01;;;;;;;4.58;4.17;;;;;;;21.22;71.54;93166.33;1779532;78;21317;-82
2021/06/29 10:00:08;;;;;;;4.70;4.10;;;;;;;21.28;72.49;93167.20;1718444;81;21084;-82
2021/06/29 10:02:50;;;;;;;4.33;3.47;;;;;;;21.37;71.11;93169.81;1823516;75;21126;-79
2021/06/29 10:05:20;;;;;;;3.77;3.47;;;;;;;21.48;71.70;93160.37;1849209;75;21188;-82
2021/06/29 10:07:52;;;;;;;4.67;4.05;;;;;;;21.68;71.84;93167.44;1826630;76;21030;-82
2021/06/29 10:10:22;;;;;;;3.75;3.45;;;;;;;21.90;69.00;93169.88;1838639;76;21101;-81
2021/06/29 10:12:49;;;;;;;3.58;3.30;;;;;;;22.03;67.61;93164.08;1845067;75;21116;-79
2021/06/29 10:15:22;;;;;;;4.08;3.77;;;;;;;22.04;67.33;93156.70;1801114;77;21026;-79
2021/06/29 10:17:50;;;;;;;3.70;3.40;;;;;;;21.98;64.79;93157.83;1794906;78;21042;-86
2021/06/29 10:20:37;;;;;;;3.80;3.50;;;;;;;21.89;65.30;93164.21;1770082;78;21402;-80
2021/06/29 10:23:14;;;;;;;3.87;3.50;;;;;;;21.83;67.03;93160.56;1834451;76;21599;-80
2021/06/29 10:25:51;;;;;;;3.70;3.40;;;;;;;21.81;66.04;93159.66;1758507;79;21562;-80
2021/06/29 10:28:18;;;;;;;4.42;3.87;;;;;;;21.79;65.23;93160.73;1770020;79;21010;-80
2021/06/29 10:30:46;;;;;;;4.00;3.50;;;;;;;21.82;66.64;93159.04;1763963;79;21053;-78
2021/06/29 10:33:14;;;;;;;3.62;3.33;;;;;;;21.81;65.28;93158.28;1764257;79;21124;-82
2021/06/29 10:35:42;;;;;;;4.20;3.80;;;;;;;21.78;65.98;93161.98;1747173;79;21711;-80
2021/06/29 10:38:11;;;;;;;4.20;3.90;;;;;;;21.74;65.71;93171.09;1778284;79;21315;-78
2021/06/29 10:40:38;;;;;;;3.98;3.60;;;;;;;21.69;64.73;93170.97;1792464;77;21062;-80
2021/06/29 10:43:10;;;;;;;3.35;3.15;;;;;;;21.65;65.01;93159.31;1803405;77;21433;-78
2021/06/29 10:45:43;;;;;;;3.83;3.25;;;;;;;21.64;67.00;93161.94;1827224;76;21116;-81
2021/06/29 10:50:47;;;;;;;3.55;3.25;;;;;;;21.63;65.37;93172.25;1823248;77;21138;-82
2021/06/29 10:53:43;;;;;;;4.60;3.02;;;;;;;21.59;64.71;93161.98;1813284;77;21010;-83
2021/06/29 10:56:17;;;;;;;3.58;3.08;;;;;;;21.61;65.39;93148.42;1810125;77;21050;-82
2021/06/29 10:58:51;;;;;;;3.55;3.35;;;;;;;21.65;64.92;93148.25;1763412;79;28061;-80
2021/06/29 11:01:32;;;;;;;7.78;3.95;;;;;;;21.70;66.24;93133.75;1791400;78;20986;-80
2021/06/29 11:04:03;;;;;;;4.03;3.72;;;;;;;21.79;66.73;93126.15;1756653;78;21317;-83
2021/06/29 11:06:45;;;;;;;3.05;2.85;;;;;;;21.89;67.06;93129.61;1795239;78;21061;-82
2021/06/29 11:09:19;;;;;;;3.83;3.00;;;;;;;22.01;66.04;93127.19;1792818;77;21368;-82
2021/06/29 11:14:56;;;;;;;3.85;3.42;;;;;;;22.25;65.61;93109.75;1796347;77;21055;-80
2021/06/29 11:18:00;;;;;;;3.37;2.92;;;;;;;22.40;64.70;93112.52;1795070;78;21093;-82
2021/06/29 11:20:46;;;;;;;3.60;3.00;;;;;;;22.43;62.76;93094.33;1742044;77;21740;-79
2021/06/29 11:23:31;;;;;;;3.02;2.83;;;;;;;22.42;63.55;93097.59;1761995;77;21044;-80
2021/06/29 11:26:00;;;;;;;4.08;3.15;;;;;;;22.46;65.34;93094.00;1815413;75;21324;-81
2021/06/29 11:28:35;;;;;;;6.15;4.12;;;;;;;22.52;63.75;93096.98;1810447;77;21057;-81
2021/06/29 11:31:12;;;;;;;3.45;3.15;;;;;;;22.63;65.29;93101.17;1825743;77;21096;-81
2021/06/29 11:33:59;;;;;;;8.55;3.22;;;;;;;22.75;64.67;93095.34;1809256;78;21037;-79
2021/06/29 11:36:32;;;;;;;4.03;3.42;;;;;;;22.91;64.58;93093.30;1812804;78;21722;-80
2021/06/29 11:39:20;;;;;;;4.67;3.72;;;;;;;23.08;65.47;93092.16;1796385;79;21069;-81
2021/06/29 11:42:07;;;;;;;3.77;3.08;;;;;;;23.13;63.31;93093.64;1789051;77;21000;-82
2021/06/29 11:44:43;;;;;;;3.27;2.90;;;;;;;23.15;62.23;93086.97;1782840;78;21867;-82
2021/06/29 11:47:13;;;;;;;3.02;2.83;;;;;;;23.23;62.26;93085.30;1772653;77;21041;-81
2021/06/29 11:52:48;;;;;;;4.03;2.80;;;;;;;23.53;59.89;93101.81;1858831;76;22654;-80
2021/06/29 11:56:32;;;;;;;4.83;2.90;;;;;;;23.58;61.03;93089.25;1842941;77;22646;-80
2021/06/29 11:59:10;;;;;;;4.05;3.00;;;;;;;23.58;59.59;93094.17;1863651;76;21945;-79
2021/06/29 12:01:42;;;;;;;2.52;2.42;;;;;;;23.61;58.75;93075.80;1869029;75;20950;-82
2021/06/29 12:04:10;;;;;;;2.92;2.70;;;;;;;23.60;59.73;93074.28;1860099;75;21012;-81
2021/06/29 12:06:38;;;;;;;2.80;2.60;;;;;;;23.55;59.05;93076.38;1814643;75;21155;-80
2021/06/29 12:09:05;;;;;;;3.17;2.98;;;;;;;23.43;58.20;93079.61;1886395;73;21036;-80